KRCX Airport (Rusk County) Information

FAA: RCX - ICAO: KRCX

KRCX Airport Location

State Wisconsin
County Rusk
City Ladysmith
KRCX Airport is 4 miles northeast of Ladysmith, WI.
Latitude 45-29-47.7083N
Longitude 091-00-00.6748W
Elevation 1,239ft

KRCX Airport METARs

METAR KRCX 240915Z AUTO 00000KT 10SM 06/06 A2990 RMK AO2 T00600060
Altimeter 29.90"
Temperature 6.0°C (42.8°F)
Wind 0° at 0KT
Clouds at 0ft
Visibility 10.0mi
Time observed: 2021-09-24T09:15:00Z

KRCX Airport Details

Status Operational
Activation N/A
Ownership Public
Usage Public
Chart GREEN BAY
ATC on-site No
Beacon schedule sunset-sunrise
Beacon color clear green

KRCX Airport Contacts

Owner RUSK COUNTY
Owner address 311 MINER AVE E, LADYSMITH, WI 54848
Owner phone 715-532-2635
Manager DAN BEER
Manager address 1119 COUNTY RD A, HUDSON, WI 54016
Manager phone 715-386-5068

KRCX Airport (Rusk County) Radio Frequencies

KRCX (Airport) Radio Frequencies

UNICOM 122.8
Common traffic advisory frequency (CTAF) 122.8